Time;durP1;ratioP1;P1;durP2;ratioP2;P2;SDS_P1;SDS_P2;PMS_P1;PMS_P2;Temp;Humidity;BMP_temperature;BMP_pressure;BME280_temperature;BME280_humidity;BME280_pressure;Samples;Min_cycle;Max_cycle;Signal;HPM_P1;HPM_P2
2021/05/25 00:01:23;;;;;;;1.17;0.77;;;;;;;;;;5093512;28;20303;-71
2021/05/25 00:03:49;;;;;;;2.10;0.90;;;;;;;;;;5093802;28;20228;-71
2021/05/25 00:06:16;;;;;;;3.47;1.17;;;;;;;;;;5075129;28;20265;-70
2021/05/25 00:08:42;;;;;;;0.77;0.63;;;;;;;;;;5093055;28;20263;-70
2021/05/25 00:11:09;;;;;;;0.40;0.30;;;;;;;;;;5093148;28;20623;-70
2021/05/25 00:13:35;;;;;;;0.50;0.50;;;;;;;;;;5092264;28;20200;-71
2021/05/25 00:16:02;;;;;;;1.60;0.50;;;;;;;;;;5092934;28;20299;-71
2021/05/25 00:18:29;;;;;;;0.67;0.63;;;;;;;;;;5093111;28;20224;-71
2021/05/25 00:20:55;;;;;;;0.60;0.60;;;;;;;;;;5093049;28;20693;-70
2021/05/25 00:23:22;;;;;;;0.40;0.40;;;;;;;;;;5075208;28;20204;-70
2021/05/25 00:25:49;;;;;;;0.60;0.60;;;;;;;;;;5092892;28;20209;-70
2021/05/25 00:28:16;;;;;;;0.20;0.20;;;;;;;;;;5092997;28;20307;-70
2021/05/25 00:30:43;;;;;;;0.20;0.20;;;;;;;;;;5091928;28;20288;-70
2021/05/25 00:33:09;;;;;;;0.17;0.13;;;;;;;;;;5091773;28;20208;-69
2021/05/25 00:35:39;;;;;;;0.43;0.40;;;;;;;;;;5092670;28;20235;-70
2021/05/25 00:38:06;;;;;;;0.93;0.20;;;;;;;;;;5092610;28;20704;-69
2021/05/25 00:40:33;;;;;;;0.10;0.10;;;;;;;;;;5092869;28;20236;-70
2021/05/25 00:43:00;;;;;;;0.40;0.13;;;;;;;;;;5093074;28;20239;-70
2021/05/25 00:45:26;;;;;;;1.10;0.30;;;;;;;;;;5073288;28;20274;-69
2021/05/25 00:47:53;;;;;;;0.00;0.00;;;;;;;;;;5071158;28;20272;-70
2021/05/25 00:50:22;;;;;;;0.83;0.20;;;;;;;;;;5092235;28;20223;-71
2021/05/25 00:52:50;;;;;;;0.00;0.00;;;;;;;;;;5112998;28;20290;-70
2021/05/25 00:55:22;;;;;;;0.23;0.13;;;;;;;;;;5112727;28;20246;-70
2021/05/25 00:57:49;;;;;;;0.10;0.10;;;;;;;;;;5110144;28;20287;-69
2021/05/25 01:34:07;;;;;;;0.10;0.10;;;;;;;;;;5089322;28;20381;-72
2021/05/25 01:36:34;;;;;;;0.63;0.10;;;;;;;;;;5088257;28;20297;-71
2021/05/25 01:39:00;;;;;;;0.73;0.20;;;;;;;;;;5089414;28;20258;-69
2021/05/25 01:41:26;;;;;;;1.80;0.10;;;;;;;;;;5089467;28;20291;-68
2021/05/25 01:43:53;;;;;;;0.07;0.07;;;;;;;;;;5088185;28;20207;-68
2021/05/25 01:46:19;;;;;;;0.10;0.10;;;;;;;;;;5088808;28;20208;-69
2021/05/25 01:48:48;;;;;;;2.00;0.43;;;;;;;;;;5087822;28;20639;-69
2021/05/25 01:51:14;;;;;;;0.20;0.20;;;;;;;;;;5087887;28;20287;-69
2021/05/25 01:53:40;;;;;;;1.73;0.43;;;;;;;;;;5088871;28;20267;-69
2021/05/25 01:56:07;;;;;;;0.20;0.20;;;;;;;;;;5088842;28;20304;-69
2021/05/25 01:58:33;;;;;;;0.67;0.30;;;;;;;;;;5088836;28;20213;-69
2021/05/25 02:01:02;;;;;;;0.30;0.30;;;;;;;;;;5087803;28;20214;-69
2021/05/25 02:03:28;;;;;;;0.07;0.07;;;;;;;;;;5088932;28;20208;-69
2021/05/25 02:05:56;;;;;;;0.10;0.10;;;;;;;;;;5088783;28;20209;-69
2021/05/25 02:08:23;;;;;;;0.10;0.10;;;;;;;;;;5088926;28;20228;-70
2021/05/25 02:10:54;;;;;;;0.20;0.20;;;;;;;;;;5070731;28;20586;-71
2021/05/25 02:13:21;;;;;;;0.00;0.00;;;;;;;;;;5087281;28;20259;-71
2021/05/25 02:15:49;;;;;;;0.20;0.20;;;;;;;;;;5088226;28;20232;-70
2021/05/25 02:18:17;;;;;;;0.50;0.20;;;;;;;;;;5088500;28;20307;-69
2021/05/25 02:20:44;;;;;;;0.00;0.00;;;;;;;;;;5087357;28;20232;-70
2021/05/25 02:23:11;;;;;;;0.77;0.37;;;;;;;;;;5088347;28;20211;-70
2021/05/25 02:25:38;;;;;;;0.00;0.00;;;;;;;;;;5086901;28;20293;-70
2021/05/25 02:28:05;;;;;;;0.67;0.30;;;;;;;;;;5088532;28;20275;-70
2021/05/25 02:30:32;;;;;;;0.20;0.20;;;;;;;;;;5087215;28;20292;-70
2021/05/25 02:32:59;;;;;;;0.10;0.10;;;;;;;;;;5087109;28;20263;-70
2021/05/25 02:35:26;;;;;;;0.00;0.00;;;;;;;;;;5088024;28;20209;-70
2021/05/25 02:37:53;;;;;;;0.40;0.17;;;;;;;;;;5088059;28;20225;-70
2021/05/25 02:40:20;;;;;;;0.33;0.17;;;;;;;;;;5088005;28;20231;-70
2021/05/25 02:42:46;;;;;;;0.30;0.20;;;;;;;;;;5088340;28;20209;-70
2021/05/25 02:45:13;;;;;;;0.23;0.20;;;;;;;;;;5076080;28;20201;-70
2021/05/25 02:47:40;;;;;;;0.10;0.10;;;;;;;;;;5074828;28;20229;-70
2021/05/25 02:50:07;;;;;;;0.40;0.30;;;;;;;;;;5082646;28;20209;-69
2021/05/25 02:52:35;;;;;;;0.10;0.10;;;;;;;;;;5094784;28;20316;-69
2021/05/25 02:55:03;;;;;;;0.10;0.10;;;;;;;;;;5094343;28;20208;-69
2021/05/25 02:57:29;;;;;;;0.10;0.10;;;;;;;;;;5094866;28;20205;-71
2021/05/25 02:59:56;;;;;;;0.60;0.20;;;;;;;;;;5054622;28;20229;-69
2021/05/25 03:02:22;;;;;;;0.10;0.10;;;;;;;;;;5054313;28;20297;-70
2021/05/25 03:04:49;;;;;;;0.00;0.00;;;;;;;;;;5052840;28;20206;-70
2021/05/25 03:07:15;;;;;;;0.50;0.10;;;;;;;;;;5054047;28;20237;-71
2021/05/25 03:09:42;;;;;;;0.17;0.10;;;;;;;;;;5053995;28;21054;-70
2021/05/25 03:12:08;;;;;;;3.47;0.83;;;;;;;;;;5053880;28;20251;-70
2021/05/25 03:14:35;;;;;;;0.10;0.10;;;;;;;;;;5053651;28;20754;-70
2021/05/25 03:17:01;;;;;;;0.23;0.23;;;;;;;;;;5052866;28;20245;-70
2021/05/25 03:19:28;;;;;;;0.17;0.17;;;;;;;;;;5052736;28;20316;-71
2021/05/25 03:21:54;;;;;;;0.33;0.10;;;;;;;;;;5053711;28;20296;-70
2021/05/25 03:24:21;;;;;;;0.10;0.10;;;;;;;;;;5053812;28;20205;-70
2021/05/25 03:26:48;;;;;;;0.30;0.30;;;;;;;;;;5053681;28;20612;-70
2021/05/25 03:29:14;;;;;;;0.93;0.27;;;;;;;;;;5053698;28;20228;-70
2021/05/25 03:31:40;;;;;;;0.37;0.20;;;;;;;;;;5053724;28;20305;-70
2021/05/25 03:34:07;;;;;;;0.10;0.10;;;;;;;;;;5053521;28;20254;-70
2021/05/25 03:36:33;;;;;;;0.10;0.10;;;;;;;;;;5053155;28;20233;-69
2021/05/25 03:39:00;;;;;;;3.60;0.20;;;;;;;;;;5035941;28;20295;-71
2021/05/25 03:41:26;;;;;;;0.10;0.10;;;;;;;;;;5053483;28;20206;-70
2021/05/25 03:43:53;;;;;;;0.10;0.10;;;;;;;;;;5053303;28;20557;-70
2021/05/25 03:46:19;;;;;;;0.40;0.20;;;;;;;;;;5053253;28;20733;-70
2021/05/25 03:48:47;;;;;;;0.07;0.07;;;;;;;;;;5053175;28;20745;-70
2021/05/25 03:51:14;;;;;;;0.00;0.00;;;;;;;;;;5053166;28;20237;-70
2021/05/25 03:53:40;;;;;;;0.27;0.27;;;;;;;;;;5053166;28;20764;-70
2021/05/25 03:58:53;;;;;;;0.20;0.20;;;;;;;;;;5057222;28;20319;-70
2021/05/25 04:01:20;;;;;;;2.30;0.40;;;;;;;;;;5052991;28;20201;-70
2021/05/25 04:03:49;;;;;;;0.20;0.20;;;;;;;;;;5052934;28;20252;-71
2021/05/25 04:06:15;;;;;;;0.10;0.10;;;;;;;;;;5051678;28;20236;-70
2021/05/25 04:08:41;;;;;;;0.70;0.70;;;;;;;;;;5052797;28;20276;-71
2021/05/25 04:11:08;;;;;;;0.30;0.30;;;;;;;;;;5035271;28;20206;-70
2021/05/25 04:13:35;;;;;;;0.10;0.10;;;;;;;;;;5052640;28;20313;-70
2021/05/25 04:16:01;;;;;;;0.50;0.30;;;;;;;;;;5052700;28;20249;-70
2021/05/25 04:18:28;;;;;;;0.10;0.10;;;;;;;;;;5052793;28;20261;-70
2021/05/25 04:20:54;;;;;;;0.50;0.13;;;;;;;;;;5053117;28;20296;-70
2021/05/25 04:23:21;;;;;;;0.10;0.10;;;;;;;;;;5052930;28;20217;-70
2021/05/25 04:25:47;;;;;;;0.10;0.10;;;;;;;;;;5052321;28;20631;-70
2021/05/25 04:28:14;;;;;;;0.23;0.23;;;;;;;;;;5034740;28;20268;-70
2021/05/25 04:30:41;;;;;;;1.57;0.27;;;;;;;;;;5052646;28;20202;-70
2021/05/25 04:33:07;;;;;;;0.13;0.10;;;;;;;;;;5052389;28;20234;-69
2021/05/25 04:35:34;;;;;;;0.10;0.10;;;;;;;;;;5052076;28;20686;-71
2021/05/25 04:38:01;;;;;;;0.83;0.20;;;;;;;;;;5052512;28;20258;-71
2021/05/25 04:40:28;;;;;;;0.20;0.20;;;;;;;;;;5052256;28;20244;-71
2021/05/25 04:42:55;;;;;;;3.07;0.20;;;;;;;;;;5034761;28;20259;-70
2021/05/25 04:45:21;;;;;;;0.50;0.30;;;;;;;;;;5052007;28;20744;-70
2021/05/25 04:47:48;;;;;;;1.50;0.23;;;;;;;;;;5052690;28;20570;-70
2021/05/25 04:50:14;;;;;;;0.20;0.10;;;;;;;;;;5035256;28;20298;-70
2021/05/25 04:52:41;;;;;;;0.27;0.10;;;;;;;;;;5052316;28;20332;-71
2021/05/25 04:55:09;;;;;;;0.10;0.10;;;;;;;;;;5051915;28;20637;-71
2021/05/25 04:57:36;;;;;;;0.33;0.33;;;;;;;;;;5052836;28;20281;-71
2021/05/25 05:00:04;;;;;;;0.30;0.13;;;;;;;;;;5070642;28;20290;-71
2021/05/25 05:02:30;;;;;;;0.97;0.60;;;;;;;;;;5072162;28;20420;-70
2021/05/25 05:04:57;;;;;;;0.57;0.43;;;;;;;;;;5070556;28;20208;-71
2021/05/25 05:07:23;;;;;;;0.20;0.20;;;;;;;;;;5071934;28;20296;-70
2021/05/25 05:09:50;;;;;;;0.20;0.20;;;;;;;;;;5070615;28;20249;-72
2021/05/25 05:12:16;;;;;;;0.37;0.33;;;;;;;;;;5070654;28;20627;-72
2021/05/25 05:14:43;;;;;;;1.27;0.60;;;;;;;;;;5071692;28;20320;-72
2021/05/25 05:17:10;;;;;;;0.53;0.30;;;;;;;;;;5071852;28;20201;-71
2021/05/25 05:19:36;;;;;;;4.90;1.07;;;;;;;;;;5071740;28;20270;-72
2021/05/25 05:22:02;;;;;;;0.20;0.20;;;;;;;;;;5071764;28;20201;-71
2021/05/25 05:24:29;;;;;;;0.93;0.50;;;;;;;;;;5070307;28;20209;-71
2021/05/25 05:26:55;;;;;;;0.33;0.30;;;;;;;;;;5071469;28;20664;-71
2021/05/25 05:29:22;;;;;;;0.67;0.50;;;;;;;;;;5070699;28;20221;-71
2021/05/25 05:31:48;;;;;;;0.23;0.23;;;;;;;;;;5071699;28;20237;-72
2021/05/25 05:34:14;;;;;;;0.60;0.57;;;;;;;;;;5071593;28;20311;-72
2021/05/25 05:36:41;;;;;;;0.17;0.17;;;;;;;;;;5071379;28;20210;-72
2021/05/25 05:39:07;;;;;;;0.20;0.20;;;;;;;;;;5070292;28;20694;-72
2021/05/25 05:41:34;;;;;;;0.83;0.17;;;;;;;;;;5071466;28;20224;-72
2021/05/25 05:44:00;;;;;;;0.20;0.20;;;;;;;;;;5063291;28;20555;-72
2021/05/25 05:46:27;;;;;;;0.37;0.30;;;;;;;;;;5051307;28;20259;-72
2021/05/25 05:48:54;;;;;;;1.33;0.50;;;;;;;;;;5051321;28;20230;-71
2021/05/25 05:51:22;;;;;;;1.00;0.27;;;;;;;;;;5070341;28;20236;-72
2021/05/25 05:53:49;;;;;;;1.80;0.50;;;;;;;;;;5091502;28;20225;-72
2021/05/25 05:56:19;;;;;;;0.77;0.40;;;;;;;;;;5091148;28;20661;-72
2021/05/25 05:58:46;;;;;;;0.10;0.10;;;;;;;;;;5081127;28;20475;-72
2021/05/25 06:01:13;;;;;;;0.00;0.00;;;;;;;;;;5070221;28;20205;-72
2021/05/25 06:03:40;;;;;;;0.53;0.53;;;;;;;;;;5070999;28;20613;-72
2021/05/25 06:06:06;;;;;;;0.17;0.17;;;;;;;;;;5071007;28;20395;-72
2021/05/25 06:08:33;;;;;;;0.87;0.43;;;;;;;;;;5069768;28;20286;-72
2021/05/25 06:10:59;;;;;;;0.20;0.20;;;;;;;;;;5071138;28;20205;-71
2021/05/25 06:13:26;;;;;;;0.37;0.23;;;;;;;;;;5071171;28;20263;-73
2021/05/25 06:15:55;;;;;;;0.20;0.20;;;;;;;;;;5069865;28;20349;-71
2021/05/25 06:18:22;;;;;;;0.30;0.30;;;;;;;;;;5071377;28;20221;-71
2021/05/25 06:20:48;;;;;;;0.13;0.13;;;;;;;;;;5073574;28;20213;-72
2021/05/25 06:23:15;;;;;;;0.33;0.20;;;;;;;;;;5074736;28;20604;-70
2021/05/25 06:25:41;;;;;;;1.23;0.40;;;;;;;;;;5073641;28;20247;-71
2021/05/25 06:28:08;;;;;;;0.27;0.23;;;;;;;;;;5073999;28;20236;-72
2021/05/25 06:30:35;;;;;;;2.03;0.57;;;;;;;;;;5073662;28;20198;-71
2021/05/25 06:33:01;;;;;;;0.10;0.10;;;;;;;;;;5074670;28;20294;-70
2021/05/25 06:35:27;;;;;;;1.33;0.50;;;;;;;;;;5074246;28;20263;-69
2021/05/25 06:37:54;;;;;;;3.40;0.47;;;;;;;;;;5074474;28;20256;-70
2021/05/25 06:40:20;;;;;;;1.40;0.50;;;;;;;;;;5073509;28;20205;-69
2021/05/25 06:42:47;;;;;;;0.57;0.20;;;;;;;;;;5074397;28;20724;-70
2021/05/25 06:45:14;;;;;;;0.87;0.10;;;;;;;;;;5055920;28;20205;-70
2021/05/25 06:47:40;;;;;;;0.40;0.30;;;;;;;;;;5053003;28;20743;-71
2021/05/25 06:50:08;;;;;;;0.10;0.10;;;;;;;;;;5070514;28;20205;-71
2021/05/25 06:52:34;;;;;;;0.87;0.37;;;;;;;;;;5095158;28;20215;-71
2021/05/25 06:55:03;;;;;;;1.50;0.60;;;;;;;;;;5094424;28;20228;-71
2021/05/25 06:57:30;;;;;;;0.23;0.23;;;;;;;;;;5094689;28;20224;-71
2021/05/25 06:59:56;;;;;;;1.60;0.47;;;;;;;;;;5054078;28;20221;-71
2021/05/25 07:02:23;;;;;;;0.10;0.10;;;;;;;;;;5052775;28;20240;-71
2021/05/25 07:04:53;;;;;;;0.37;0.33;;;;;;;;;;5053439;28;20670;-73
2021/05/25 07:07:20;;;;;;;1.93;0.30;;;;;;;;;;5054109;28;20631;-71
2021/05/25 07:09:46;;;;;;;0.67;0.30;;;;;;;;;;5035932;28;20275;-70
2021/05/25 07:12:13;;;;;;;0.87;0.50;;;;;;;;;;5054021;28;20206;-70
2021/05/25 07:14:40;;;;;;;0.90;0.20;;;;;;;;;;5053657;28;20233;-70
2021/05/25 07:17:07;;;;;;;1.10;0.30;;;;;;;;;;5054199;28;20225;-70
2021/05/25 07:19:33;;;;;;;2.03;0.50;;;;;;;;;;5053544;28;20218;-70
2021/05/25 07:22:00;;;;;;;0.17;0.10;;;;;;;;;;5054059;28;20552;-70
2021/05/25 07:24:27;;;;;;;0.23;0.23;;;;;;;;;;5053776;28;20213;-70
2021/05/25 07:26:53;;;;;;;3.20;0.30;;;;;;;;;;5053730;28;20206;-70
2021/05/25 07:29:20;;;;;;;1.60;0.47;;;;;;;;;;5053521;28;20268;-71
2021/05/25 07:31:46;;;;;;;1.30;0.60;;;;;;;;;;5053360;28;20305;-71
2021/05/25 07:34:13;;;;;;;0.73;0.50;;;;;;;;;;5053328;28;20635;-71
2021/05/25 07:36:39;;;;;;;0.20;0.20;;;;;;;;;;5053386;28;20240;-71
2021/05/25 07:39:06;;;;;;;0.37;0.10;;;;;;;;;;5053641;28;20249;-70
2021/05/25 07:41:33;;;;;;;0.33;0.33;;;;;;;;;;5053403;28;20655;-70
2021/05/25 07:43:59;;;;;;;0.67;0.50;;;;;;;;;;5060162;28;20205;-70
2021/05/25 07:46:28;;;;;;;0.00;0.00;;;;;;;;;;5072882;28;20209;-70
2021/05/25 07:48:54;;;;;;;0.20;0.20;;;;;;;;;;5073711;28;20673;-70
2021/05/25 07:51:23;;;;;;;0.23;0.10;;;;;;;;;;5091968;28;20288;-70
2021/05/25 07:53:50;;;;;;;0.40;0.33;;;;;;;;;;5091587;28;20255;-70
2021/05/25 07:56:16;;;;;;;0.20;0.10;;;;;;;;;;5093147;28;20235;-71
2021/05/25 07:58:43;;;;;;;0.22;0.13;;;;;;;;;;5083193;28;20221;-71
2021/05/25 08:01:10;;;;;;;0.50;0.30;;;;;;;;;;5072113;28;20197;-71
2021/05/25 08:03:36;;;;;;;0.13;0.13;;;;;;;;;;5072193;28;20292;-71
2021/05/25 08:06:03;;;;;;;0.28;0.13;;;;;;;;;;5072752;28;20251;-71
2021/05/25 08:08:30;;;;;;;0.00;0.00;;;;;;;;;;5072763;28;20271;-70
2021/05/25 08:10:57;;;;;;;0.20;0.20;;;;;;;;;;5072925;28;20251;-70
2021/05/25 08:13:24;;;;;;;0.13;0.10;;;;;;;;;;5072717;28;20234;-71
2021/05/25 08:15:51;;;;;;;0.17;0.17;;;;;;;;;;5072359;28;20220;-70
2021/05/25 08:21:04;;;;;;;0.00;0.00;;;;;;;;;;5072637;28;20813;-70
2021/05/25 08:23:30;;;;;;;0.10;0.10;;;;;;;;;;5072449;28;20311;-70
2021/05/25 08:25:57;;;;;;;0.10;0.10;;;;;;;;;;5071876;28;20236;-71
2021/05/25 08:28:24;;;;;;;0.10;0.10;;;;;;;;;;5071124;28;20235;-71
2021/05/25 08:30:50;;;;;;;0.77;0.30;;;;;;;;;;5071254;28;20662;-70
2021/05/25 08:33:17;;;;;;;0.20;0.20;;;;;;;;;;5072398;28;20227;-70
2021/05/25 08:35:45;;;;;;;0.03;0.03;;;;;;;;;;5071975;28;20248;-70
2021/05/25 08:38:13;;;;;;;0.10;0.10;;;;;;;;;;5070958;28;20225;-71
2021/05/25 08:40:40;;;;;;;0.13;0.07;;;;;;;;;;5071902;28;20201;-71
2021/05/25 08:43:07;;;;;;;0.30;0.20;;;;;;;;;;5071590;28;20237;-71
2021/05/25 08:45:33;;;;;;;0.37;0.30;;;;;;;;;;5052152;28;20331;-71
2021/05/25 08:48:00;;;;;;;0.63;0.10;;;;;;;;;;5051909;28;20707;-71
2021/05/25 08:50:47;;;;;;;0.23;0.23;;;;;;;;;;5078451;28;20234;-70
2021/05/25 08:53:13;;;;;;;0.20;0.17;;;;;;;;;;5092033;28;20239;-70
2021/05/25 08:55:41;;;;;;;0.10;0.10;;;;;;;;;;5073873;28;20273;-71
2021/05/25 08:58:07;;;;;;;0.10;0.10;;;;;;;;;;5086916;28;20313;-70
2021/05/25 09:00:34;;;;;;;0.50;0.30;;;;;;;;;;5071923;28;20237;-70
2021/05/25 09:03:00;;;;;;;0.30;0.10;;;;;;;;;;5071819;28;20227;-71
2021/05/25 09:05:27;;;;;;;0.70;0.40;;;;;;;;;;5070178;28;20262;-71
2021/05/25 09:07:55;;;;;;;0.77;0.47;;;;;;;;;;5071494;28;20265;-71
2021/05/25 09:10:22;;;;;;;2.57;0.30;;;;;;;;;;5071852;28;20296;-72
2021/05/25 09:12:52;;;;;;;1.67;0.20;;;;;;;;;;5071547;28;20731;-72
2021/05/25 09:15:35;;;;;;;0.27;0.27;;;;;;;;;;5070166;28;20259;-71
2021/05/25 09:18:03;;;;;;;0.40;0.30;;;;;;;;;;5071505;28;20228;-72
2021/05/25 09:20:39;;;;;;;0.53;0.30;;;;;;;;;;5071685;28;20209;-72
2021/05/25 09:23:06;;;;;;;0.20;0.20;;;;;;;;;;5071413;28;20204;-71
2021/05/25 09:25:33;;;;;;;0.37;0.20;;;;;;;;;;5071378;28;20233;-71
2021/05/25 09:28:10;;;;;;;0.00;0.00;;;;;;;;;;5070021;28;20590;-72
2021/05/25 09:30:37;;;;;;;0.85;0.32;;;;;;;;;;5070966;28;20235;-72
2021/05/25 09:33:08;;;;;;;1.48;0.25;;;;;;;;;;5071084;28;20209;-72
2021/05/25 09:35:36;;;;;;;0.47;0.30;;;;;;;;;;5069141;28;20792;-71
2021/05/25 09:38:07;;;;;;;0.28;0.20;;;;;;;;;;5070803;28;20260;-71
2021/05/25 09:40:35;;;;;;;0.00;0.00;;;;;;;;;;5069684;28;20632;-72
2021/05/25 09:43:15;;;;;;;0.73;0.30;;;;;;;;;;5069673;28;20678;-72
2021/05/25 09:46:00;;;;;;;1.10;0.30;;;;;;;;;;5050680;28;20205;-71
2021/05/25 09:48:32;;;;;;;0.13;0.10;;;;;;;;;;5051149;28;20222;-71
2021/05/25 09:50:59;;;;;;;0.10;0.10;;;;;;;;;;5063495;28;20196;-70
2021/05/25 09:53:29;;;;;;;0.00;0.00;;;;;;;;;;5089817;28;20231;-71
2021/05/25 09:55:55;;;;;;;0.38;0.10;;;;;;;;;;5094886;28;20263;-69
2021/05/25 09:58:24;;;;;;;0.15;0.10;;;;;;;;;;5087768;28;20672;-70
2021/05/25 10:00:52;;;;;;;0.00;0.00;;;;;;;;;;5074740;28;20216;-70
2021/05/25 10:03:20;;;;;;;0.05;0.05;;;;;;;;;;5073543;28;20292;-70
2021/05/25 10:05:50;;;;;;;0.10;0.10;;;;;;;;;;5074633;28;20209;-70
2021/05/25 10:08:17;;;;;;;2.30;0.10;;;;;;;;;;5072705;28;20267;-69
2021/05/25 10:10:44;;;;;;;0.65;0.20;;;;;;;;;;5072780;28;20649;-70
2021/05/25 10:13:11;;;;;;;0.10;0.10;;;;;;;;;;5073018;28;20233;-69
2021/05/25 10:15:38;;;;;;;0.00;0.00;;;;;;;;;;5074043;28;20225;-70
2021/05/25 10:20:51;;;;;;;0.15;0.15;;;;;;;;;;5074039;28;20212;-70
2021/05/25 10:23:18;;;;;;;5.82;0.40;;;;;;;;;;5074645;28;20236;-69
2021/05/25 10:25:47;;;;;;;1.02;0.13;;;;;;;;;;5074173;28;20255;-69
2021/05/25 10:28:14;;;;;;;0.07;0.07;;;;;;;;;;5074162;28;20307;-70
2021/05/25 10:30:43;;;;;;;0.17;0.17;;;;;;;;;;5074197;28;20748;-70
2021/05/25 10:33:10;;;;;;;0.13;0.13;;;;;;;;;;5072645;28;20241;-69
2021/05/25 10:35:53;;;;;;;0.00;0.00;;;;;;;;;;5073723;28;20671;-70
2021/05/25 10:38:21;;;;;;;0.97;0.20;;;;;;;;;;5073576;28;20731;-69
2021/05/25 10:40:49;;;;;;;0.10;0.10;;;;;;;;;;5072508;28;20225;-69
2021/05/25 10:43:34;;;;;;;0.93;0.43;;;;;;;;;;5073061;28;20209;-70
2021/05/25 10:46:11;;;;;;;0.47;0.17;;;;;;;;;;5053536;28;20228;-69
2021/05/25 10:48:50;;;;;;;1.43;0.40;;;;;;;;;;5053613;28;20253;-69
2021/05/25 10:51:16;;;;;;;0.10;0.10;;;;;;;;;;5089220;28;20720;-69
2021/05/25 10:53:43;;;;;;;0.40;0.20;;;;;;;;;;5094104;28;20619;-69
2021/05/25 10:56:36;;;;;;;0.20;0.10;;;;;;;;;;5092506;28;20252;-68
2021/05/25 10:59:05;;;;;;;0.33;0.07;;;;;;;;;;5081000;28;20231;-69
2021/05/25 11:01:35;;;;;;;0.20;0.20;;;;;;;;;;5074105;28;20204;-69
2021/05/25 11:04:08;;;;;;;1.53;0.33;;;;;;;;;;5073830;28;20201;-69
2021/05/25 11:06:35;;;;;;;0.97;0.47;;;;;;;;;;5072865;28;20215;-69
2021/05/25 11:09:39;;;;;;;0.30;0.20;;;;;;;;;;5073543;28;20259;-70
2021/05/25 11:12:09;;;;;;;0.00;0.00;;;;;;;;;;5070502;28;20292;-70
2021/05/25 11:14:36;;;;;;;0.37;0.33;;;;;;;;;;5053699;28;20233;-70
2021/05/25 11:17:21;;;;;;;0.50;0.20;;;;;;;;;;5071882;28;20205;-70
2021/05/25 11:22:34;;;;;;;0.57;0.10;;;;;;;;;;5073119;28;20202;-70
2021/05/25 11:25:03;;;;;;;0.10;0.10;;;;;;;;;;5055022;28;20686;-70
2021/05/25 11:27:30;;;;;;;2.90;0.27;;;;;;;;;;5073437;28;20213;-70
2021/05/25 11:30:02;;;;;;;0.83;0.20;;;;;;;;;;5073373;28;20661;-69
2021/05/25 11:32:49;;;;;;;0.20;0.10;;;;;;;;;;5072042;28;20682;-70
2021/05/25 11:35:23;;;;;;;0.93;0.40;;;;;;;;;;5072505;28;20259;-70
2021/05/25 11:37:53;;;;;;;0.10;0.10;;;;;;;;;;5071857;28;20197;-72
2021/05/25 11:40:25;;;;;;;0.10;0.10;;;;;;;;;;5072389;28;20200;-70
2021/05/25 11:42:52;;;;;;;0.10;0.10;;;;;;;;;;5072386;28;20216;-70
2021/05/25 11:45:22;;;;;;;0.13;0.07;;;;;;;;;;5052769;28;20229;-70
2021/05/25 11:48:08;;;;;;;0.10;0.10;;;;;;;;;;5051301;28;20234;-70
2021/05/25 11:50:41;;;;;;;0.07;0.07;;;;;;;;;;5076126;28;20342;-70
2021/05/25 11:53:11;;;;;;;0.03;0.03;;;;;;;;;;5092557;28;20204;-70
2021/05/25 11:55:41;;;;;;;0.13;0.13;;;;;;;;;;5092257;28;20236;-70
2021/05/25 11:58:08;;;;;;;0.00;0.00;;;;;;;;;;5085541;28;20221;-70
2021/05/25 12:00:36;;;;;;;0.30;0.30;;;;;;;;;;5070881;28;20288;-70
2021/05/25 12:03:05;;;;;;;0.00;0.00;;;;;;;;;;5072123;28;20201;-70
2021/05/25 12:05:33;;;;;;;5.87;0.50;;;;;;;;;;5071665;28;20258;-70
2021/05/25 12:08:00;;;;;;;0.10;0.10;;;;;;;;;;5070746;28;20221;-70
2021/05/25 12:10:27;;;;;;;0.30;0.30;;;;;;;;;;5071534;28;20380;-69
2021/05/25 12:13:02;;;;;;;0.37;0.20;;;;;;;;;;5070304;28;20497;-70
2021/05/25 12:15:33;;;;;;;0.23;0.20;;;;;;;;;;5070072;28;20232;-71
2021/05/25 12:18:00;;;;;;;0.20;0.20;;;;;;;;;;5071216;28;20308;-71
2021/05/25 12:20:40;;;;;;;0.03;0.03;;;;;;;;;;5070567;28;20202;-71
2021/05/25 12:23:10;;;;;;;0.27;0.20;;;;;;;;;;5071730;28;20209;-71
2021/05/25 12:25:39;;;;;;;0.10;0.10;;;;;;;;;;5069644;28;20250;-72
2021/05/25 12:28:07;;;;;;;0.20;0.20;;;;;;;;;;5071450;28;20229;-71
2021/05/25 12:30:37;;;;;;;0.20;0.10;;;;;;;;;;5071637;28;20346;-71
2021/05/25 12:33:05;;;;;;;9.07;0.93;;;;;;;;;;5070052;28;20209;-71
2021/05/25 12:35:32;;;;;;;0.00;0.00;;;;;;;;;;5070700;28;20312;-71
2021/05/25 12:38:05;;;;;;;0.10;0.10;;;;;;;;;;5071354;28;20600;-71
2021/05/25 12:40:32;;;;;;;0.10;0.10;;;;;;;;;;5070759;28;20205;-71
2021/05/25 12:42:59;;;;;;;0.40;0.20;;;;;;;;;;5071603;28;20263;-72
2021/05/25 12:45:29;;;;;;;1.17;0.40;;;;;;;;;;5052593;28;20304;-71
2021/05/25 12:47:57;;;;;;;0.10;0.10;;;;;;;;;;5051428;28;20236;-72
2021/05/25 12:50:42;;;;;;;0.20;0.13;;;;;;;;;;5070990;28;20284;-71
2021/05/25 12:53:16;;;;;;;0.20;0.20;;;;;;;;;;5091760;28;20257;-71
2021/05/25 12:55:56;;;;;;;0.43;0.30;;;;;;;;;;5090790;28;20625;-71
2021/05/25 12:58:34;;;;;;;0.77;0.40;;;;;;;;;;5084169;28;20255;-71
2021/05/25 13:01:17;;;;;;;0.37;0.37;;;;;;;;;;5070885;28;20204;-71
2021/05/25 13:03:43;;;;;;;0.20;0.20;;;;;;;;;;5071755;28;20241;-70
2021/05/25 13:06:25;;;;;;;3.40;0.30;;;;;;;;;;5070035;28;20240;-71
2021/05/25 13:08:54;;;;;;;4.37;0.30;;;;;;;;;;5069808;28;20225;-71
2021/05/25 13:11:24;;;;;;;0.30;0.30;;;;;;;;;;5071452;28;20248;-71
2021/05/25 13:13:51;;;;;;;0.00;0.00;;;;;;;;;;5071472;28;20263;-70
2021/05/25 13:16:29;;;;;;;0.10;0.10;;;;;;;;;;5070941;28;20646;-70
2021/05/25 13:18:56;;;;;;;0.57;0.17;;;;;;;;;;5069847;28;20759;-70
2021/05/25 13:21:23;;;;;;;1.40;0.20;;;;;;;;;;5070933;28;20287;-71
2021/05/25 13:23:50;;;;;;;0.10;0.10;;;;;;;;;;5069596;28;20240;-71
2021/05/25 13:26:28;;;;;;;0.73;0.20;;;;;;;;;;5070942;28;20213;-71
2021/05/25 13:28:56;;;;;;;0.33;0.30;;;;;;;;;;5070512;28;20336;-70
2021/05/25 13:31:25;;;;;;;0.00;0.00;;;;;;;;;;5069578;28;20648;-70
2021/05/25 13:33:52;;;;;;;0.10;0.10;;;;;;;;;;5069258;28;20244;-69
2021/05/25 13:36:20;;;;;;;0.00;0.00;;;;;;;;;;5070511;28;20247;-70
2021/05/25 13:38:48;;;;;;;0.07;0.07;;;;;;;;;;5070616;28;20626;-70
2021/05/25 13:41:17;;;;;;;0.87;0.10;;;;;;;;;;5069772;28;20239;-70
2021/05/25 13:43:46;;;;;;;0.00;0.00;;;;;;;;;;5066213;28;20574;-72
2021/05/25 13:46:13;;;;;;;0.23;0.20;;;;;;;;;;5050515;28;20234;-72
2021/05/25 13:48:40;;;;;;;0.10;0.10;;;;;;;;;;5050414;28;20324;-71
2021/05/25 13:51:06;;;;;;;1.07;0.27;;;;;;;;;;5081548;28;20262;-71
2021/05/25 13:53:33;;;;;;;0.30;0.20;;;;;;;;;;5091177;28;20669;-71
2021/05/25 13:56:01;;;;;;;1.33;0.70;;;;;;;;;;5090669;28;20767;-71
2021/05/25 13:58:29;;;;;;;1.77;0.33;;;;;;;;;;5082957;28;20245;-71
2021/05/25 14:03:31;;;;;;;0.23;0.00;;;;;;;;;;5071023;28;20242;-71
2021/05/25 14:05:58;;;;;;;0.10;0.10;;;;;;;;;;5070650;28;20216;-71
2021/05/25 14:08:24;;;;;;;0.40;0.10;;;;;;;;;;5069232;28;20248;-71
2021/05/25 14:10:51;;;;;;;0.00;0.00;;;;;;;;;;5070648;28;20209;-71
2021/05/25 14:13:17;;;;;;;1.00;0.50;;;;;;;;;;5069030;28;20288;-71
2021/05/25 14:15:43;;;;;;;0.10;0.10;;;;;;;;;;5070159;28;20221;-71
2021/05/25 14:18:10;;;;;;;0.00;0.00;;;;;;;;;;5070462;28;20225;-71
2021/05/25 14:20:39;;;;;;;0.50;0.20;;;;;;;;;;5069334;28;20689;-70
2021/05/25 14:23:06;;;;;;;0.20;0.10;;;;;;;;;;5070939;28;20288;-70
2021/05/25 14:25:33;;;;;;;0.20;0.20;;;;;;;;;;5070319;28;20788;-70
2021/05/25 14:28:00;;;;;;;3.40;0.30;;;;;;;;;;5070567;28;20283;-71
2021/05/25 14:30:27;;;;;;;0.87;0.20;;;;;;;;;;5070636;28;20237;-70
2021/05/25 14:32:53;;;;;;;0.10;0.10;;;;;;;;;;5069338;28;20217;-70
2021/05/25 14:35:20;;;;;;;0.10;0.10;;;;;;;;;;5070238;28;20235;-72
2021/05/25 14:37:46;;;;;;;0.47;0.20;;;;;;;;;;5070418;28;20221;-72
2021/05/25 14:40:13;;;;;;;0.40;0.20;;;;;;;;;;5071236;28;20236;-73
2021/05/25 14:42:39;;;;;;;0.87;0.30;;;;;;;;;;5074060;28;20658;-70
2021/05/25 14:45:06;;;;;;;0.10;0.10;;;;;;;;;;5073438;28;20229;-72
2021/05/25 14:47:33;;;;;;;0.57;0.23;;;;;;;;;;5072567;28;20209;-72
2021/05/25 14:50:20;;;;;;;0.10;0.10;;;;;;;;;;5081033;28;20201;-71
2021/05/25 14:52:51;;;;;;;4.47;0.33;;;;;;;;;;5094087;28;20206;-72
2021/05/25 14:55:19;;;;;;;0.10;0.10;;;;;;;;;;5093556;28;20288;-71
2021/05/25 14:57:45;;;;;;;1.07;0.40;;;;;;;;;;5090709;28;20232;-71
2021/05/25 15:00:13;;;;;;;0.37;0.20;;;;;;;;;;5073357;28;20618;-72
2021/05/25 15:02:53;;;;;;;0.10;0.10;;;;;;;;;;5073705;28;20284;-72
2021/05/25 15:07:58;;;;;;;1.20;0.20;;;;;;;;;;5073043;28;20685;-72
2021/05/25 15:10:25;;;;;;;0.10;0.10;;;;;;;;;;5071762;28;20201;-72
2021/05/25 15:12:52;;;;;;;0.20;0.10;;;;;;;;;;5073222;28;20324;-72
2021/05/25 15:15:19;;;;;;;0.30;0.30;;;;;;;;;;5072696;28;20295;-72
2021/05/25 15:17:46;;;;;;;0.10;0.10;;;;;;;;;;5071306;28;20205;-72
2021/05/25 15:20:12;;;;;;;0.10;0.10;;;;;;;;;;5072427;28;20236;-72
2021/05/25 15:22:39;;;;;;;0.77;0.50;;;;;;;;;;5054483;28;20300;-71
2021/05/25 15:25:07;;;;;;;0.27;0.17;;;;;;;;;;5072554;28;20295;-71
2021/05/25 15:27:33;;;;;;;0.87;0.30;;;;;;;;;;5072668;28;20201;-71
2021/05/25 15:30:01;;;;;;;0.83;0.40;;;;;;;;;;5072194;28;20287;-71
2021/05/25 15:32:27;;;;;;;0.10;0.10;;;;;;;;;;5072489;28;20212;-71
2021/05/25 15:34:54;;;;;;;0.10;0.10;;;;;;;;;;5071529;28;20692;-71
2021/05/25 15:37:20;;;;;;;0.50;0.30;;;;;;;;;;5072144;28;20567;-71
2021/05/25 15:39:47;;;;;;;0.97;0.60;;;;;;;;;;5071063;28;20256;-71